Thackerville, OK (73459)

2:44 PM CDT on August 02, 2015 (GMT -0500)
North Gainesville, TX I35 Exit 501 FM1202/CR444 | | Change Station
CLOSE
Current Station
Personal Weather Station
Location: Gainesville, TX
Elevation: 853 ft
Nearby Weather Stations

Elev 853 ft 33.68 °N, 97.19 °W | Updated 6 minutes ago

Mostly Cloudy
Mostly Cloudy
93.4 °F
Feels Like 95 °F
N
3.2
Wind Variable Wind from SSE

Today
High -- | Low -- °F
--% Chance of Precip.
Yesterday
High -- | Low -- °F
Precip. -- in
6:40 AM 8:28 PM
Waning Gibbous, 92% visible
Pressure 29.97 in
Visibility 10.0 miles
Clouds Mostly Cloudy 10000 ft
Heat Index 95 °F
Dew Point 64 °F
Humidity 38%
Rainfall 0.00 in
Snow Depth Not available.
UV 6 out of 12
Pollen 4.60 out of 12
Air Quality Not available.
Flu Activity Not available.
METAR KGLE 021935Z AUTO 12006KT 100V280 10SM BKN100 33/15 A2997 RMK AO2 T03250150

More Conditions Fewer Conditions

Pressure 29.97 in
Visibility 10.0 miles
Clouds Mostly Cloudy 10000 ft
Heat Index 95 °F
Dew Point 64 °F
Humidity 38%
Rainfall 0.00 in
Snow Depth Not available.
UV 6 out of 12
Pollen 4.60 out of 12
Air Quality Not available.
Flu Activity Not available.
METAR KGLE 021935Z AUTO 12006KT 100V280 10SM BKN100 33/15 A2997 RMK AO2 T03250150

More Conditions Fewer Conditions

10-Day Weather Forecast

×

Almanac

Astronomy

Aug. 02, 2015 Rise Set
Actual Time
Civil Twilight
Nautical Twilight
Astronomical Twilight
Moon
Length of Visible Light
Length of Day
Tomorrow will be .
, % of the Moon is Illuminated

Today's Extremes

State Highs State Lows

Community

WunderPhotos

Upload Photos

1,843,345 photos uploaded!

WunderBlogs® & News

Nearby

Air Quality

  Air Quality AQ Index Pollutant
Not available.

Snow Depth

Station Depth Elevation

Earthquake Activity

City Distance Mag. Time & Date
Minimum magnitude displayed is 2.5.

Coastal Water Temperatures

Place Temperature

Stations

Nearby Weather Stations

Station Location Temp. Windchill Dew Point Humidity Wind Precip. Elev Updated Type